Time;durP1;ratioP1;P1;durP2;ratioP2;P2;SDS_P1;SDS_P2;PMS_P1;PMS_P2;Temp;Humidity;BMP_temperature;BMP_pressure;BME280_temperature;BME280_humidity;BME280_pressure;Samples;Min_cycle;Max_cycle;Signal;HPM_P1;HPM_P2
2023/09/19 00:01:52;;;;;;;13.23;5.70;;;;;;;;;;6236034;28;20608;-69
2023/09/19 00:04:56;;;;;;;7.57;5.38;;;;;;;;;;6235238;28;20303;-69
2023/09/19 00:07:59;;;;;;;8.73;5.35;;;;;;;;;;6236179;28;20450;-69
2023/09/19 00:11:03;;;;;;;10.18;6.25;;;;;;;;;;6236765;28;20256;-69
2023/09/19 00:14:09;;;;;;;9.32;5.97;;;;;;;;;;6236431;28;20299;-70
2023/09/19 00:17:13;;;;;;;8.50;6.10;;;;;;;;;;6236418;28;20301;-69
2023/09/19 00:20:17;;;;;;;9.15;6.30;;;;;;;;;;6236105;28;20300;-73
2023/09/19 00:23:21;;;;;;;6.72;5.90;;;;;;;;;;6236182;28;20596;-68
2023/09/19 00:26:25;;;;;;;13.57;6.90;;;;;;;;;;6236657;28;20319;-69
2023/09/19 00:29:32;;;;;;;9.88;6.50;;;;;;;;;;6235835;28;20300;-69
2023/09/19 00:32:37;;;;;;;10.45;6.78;;;;;;;;;;6236282;28;20300;-69
2023/09/19 00:35:48;;;;;;;11.15;6.82;;;;;;;;;;6235422;28;20585;-69
2023/09/19 00:38:53;;;;;;;21.77;7.40;;;;;;;;;;6250723;28;20312;-69
2023/09/19 00:41:57;;;;;;;10.00;7.05;;;;;;;;;;6251594;28;20313;-70
2023/09/19 00:45:03;;;;;;;14.38;7.80;;;;;;;;;;6235538;28;20316;-69
2023/09/19 00:48:09;;;;;;;12.98;7.15;;;;;;;;;;6234288;28;20368;-69
2023/09/19 00:51:13;;;;;;;11.93;7.93;;;;;;;;;;6250603;28;20336;-69
2023/09/19 00:54:19;;;;;;;11.63;8.07;;;;;;;;;;6250079;28;20304;-70
2023/09/19 00:57:23;;;;;;;15.90;7.85;;;;;;;;;;6236205;28;20317;-70
2023/09/19 01:00:28;;;;;;;11.73;8.45;;;;;;;;;;6235365;28;20308;-69
2023/09/19 01:03:33;;;;;;;14.18;7.97;;;;;;;;;;6233287;28;20368;-68
2023/09/19 01:06:39;;;;;;;15.93;7.85;;;;;;;;;;6235707;28;20300;-69
2023/09/19 01:09:43;;;;;;;12.32;8.10;;;;;;;;;;6234400;28;20351;-70
2023/09/19 01:12:53;;;;;;;13.80;8.00;;;;;;;;;;6250656;28;20303;-69
2023/09/19 01:16:05;;;;;;;11.20;8.32;;;;;;;;;;6234680;28;20385;-68
2023/09/19 01:19:30;;;;;;;11.30;7.53;;;;;;;;;;6234093;28;20324;-71
2023/09/19 01:22:40;;;;;;;9.13;7.18;;;;;;;;;;6238769;28;20296;-70
2023/09/19 01:26:09;;;;;;;13.85;8.60;;;;;;;;;;6254709;28;20336;-68
2023/09/19 01:29:29;;;;;;;19.70;8.15;;;;;;;;;;6240739;28;20292;-71
2023/09/19 01:32:34;;;;;;;13.68;7.63;;;;;;;;;;6240814;28;20612;-69
2023/09/19 01:35:39;;;;;;;14.95;8.95;;;;;;;;;;6240283;28;20300;-68
2023/09/19 01:38:43;;;;;;;12.63;8.80;;;;;;;;;;6238636;28;20304;-68
2023/09/19 01:41:55;;;;;;;16.48;8.30;;;;;;;;;;6239267;28;20312;-72
2023/09/19 01:45:05;;;;;;;12.45;8.40;;;;;;;;;;6238246;28;20324;-71
2023/09/19 01:48:18;;;;;;;12.88;8.00;;;;;;;;;;6237610;28;20300;-70
2023/09/19 01:51:31;;;;;;;9.90;7.82;;;;;;;;;;6238509;28;20399;-68
2023/09/19 01:54:40;;;;;;;14.23;8.38;;;;;;;;;;6235955;28;20308;-68
2023/09/19 01:57:53;;;;;;;12.45;8.65;;;;;;;;;;6237169;28;20299;-70
2023/09/19 02:00:57;;;;;;;17.40;8.73;;;;;;;;;;6232789;28;20520;-69
2023/09/19 02:04:02;;;;;;;15.85;9.30;;;;;;;;;;6231970;28;20304;-69
2023/09/19 02:07:08;;;;;;;15.20;9.32;;;;;;;;;;6249233;28;20596;-71
2023/09/19 02:10:12;;;;;;;15.20;8.77;;;;;;;;;;6248591;28;20296;-69
2023/09/19 02:13:18;;;;;;;13.57;9.38;;;;;;;;;;6233624;28;20319;-70
2023/09/19 02:16:22;;;;;;;13.98;9.30;;;;;;;;;;6232617;28;20300;-69
2023/09/19 02:19:29;;;;;;;11.20;8.98;;;;;;;;;;6232789;28;20299;-71
2023/09/19 02:22:33;;;;;;;15.10;10.02;;;;;;;;;;6234024;28;20296;-69
2023/09/19 02:25:37;;;;;;;15.45;9.73;;;;;;;;;;6233700;28;20300;-68
2023/09/19 02:28:43;;;;;;;17.83;10.52;;;;;;;;;;6248101;28;20476;-69
2023/09/19 02:31:47;;;;;;;15.45;9.95;;;;;;;;;;6234531;28;20308;-69
2023/09/19 02:34:53;;;;;;;18.75;10.13;;;;;;;;;;6232159;28;20368;-68
2023/09/19 02:37:57;;;;;;;20.20;10.35;;;;;;;;;;6233525;28;20576;-68
2023/09/19 02:41:01;;;;;;;19.52;10.63;;;;;;;;;;6233100;28;20276;-70
2023/09/19 02:44:07;;;;;;;19.08;10.77;;;;;;;;;;6232198;28;20328;-68
2023/09/19 02:47:11;;;;;;;15.13;11.27;;;;;;;;;;6231735;28;20636;-69
2023/09/19 02:50:17;;;;;;;20.35;11.57;;;;;;;;;;6231269;28;20534;-68
2023/09/19 02:53:22;;;;;;;19.58;11.63;;;;;;;;;;6232669;28;20320;-68
2023/09/19 02:56:26;;;;;;;21.35;11.85;;;;;;;;;;6248761;28;20293;-69
2023/09/19 02:59:31;;;;;;;21.05;12.75;;;;;;;;;;6232833;28;20307;-70
2023/09/19 03:02:35;;;;;;;20.40;12.70;;;;;;;;;;6214986;28;20467;-68
2023/09/19 03:05:40;;;;;;;21.48;12.43;;;;;;;;;;6229519;28;20312;-67
2023/09/19 03:08:44;;;;;;;20.92;13.23;;;;;;;;;;6231552;28;20304;-69
2023/09/19 03:11:49;;;;;;;21.20;13.38;;;;;;;;;;6248080;28;20292;-69
2023/09/19 03:14:54;;;;;;;26.30;13.13;;;;;;;;;;6232571;28;20304;-69
2023/09/19 03:17:59;;;;;;;19.73;12.77;;;;;;;;;;6231757;28;20307;-68
2023/09/19 03:21:04;;;;;;;23.50;14.32;;;;;;;;;;6231198;28;20344;-69
2023/09/19 03:24:08;;;;;;;25.35;13.23;;;;;;;;;;6232598;28;20592;-69
2023/09/19 03:27:14;;;;;;;23.08;13.00;;;;;;;;;;6247975;28;20323;-68
2023/09/19 03:30:18;;;;;;;27.67;13.88;;;;;;;;;;6231355;28;20300;-68
2023/09/19 03:33:22;;;;;;;20.20;12.93;;;;;;;;;;6235866;28;20307;-68
2023/09/19 03:36:30;;;;;;;28.25;13.85;;;;;;;;;;6236667;28;20303;-70
2023/09/19 03:39:33;;;;;;;26.38;13.85;;;;;;;;;;6251708;28;20250;-66
2023/09/19 03:42:39;;;;;;;25.77;14.13;;;;;;;;;;6237117;28;20308;-69
2023/09/19 03:45:46;;;;;;;26.17;14.68;;;;;;;;;;6250939;28;20299;-69
2023/09/19 03:48:50;;;;;;;25.08;14.10;;;;;;;;;;6235053;28;20300;-72
2023/09/19 03:51:56;;;;;;;23.02;14.45;;;;;;;;;;6251641;28;20293;-68
2023/09/19 03:55:00;;;;;;;23.38;14.23;;;;;;;;;;6251375;28;20308;-70
2023/09/19 03:58:04;;;;;;;27.98;15.07;;;;;;;;;;6251573;28;20297;-68
2023/09/19 04:01:08;;;;;;;29.08;15.10;;;;;;;;;;6234674;28;20308;-68
2023/09/19 04:04:14;;;;;;;24.80;14.82;;;;;;;;;;6233040;28;20299;-69
2023/09/19 04:07:22;;;;;;;26.08;14.63;;;;;;;;;;6251464;28;20307;-69
2023/09/19 04:10:26;;;;;;;27.65;16.10;;;;;;;;;;6236308;28;20292;-69
2023/09/19 04:13:30;;;;;;;26.05;14.60;;;;;;;;;;6235271;28;20292;-69
2023/09/19 04:16:34;;;;;;;32.40;16.73;;;;;;;;;;6236361;28;20324;-68
2023/09/19 04:19:38;;;;;;;27.65;15.20;;;;;;;;;;6250864;28;20237;-70
2023/09/19 04:22:44;;;;;;;22.80;14.82;;;;;;;;;;6235350;28;20492;-70
2023/09/19 04:25:48;;;;;;;23.90;15.50;;;;;;;;;;6234322;28;20308;-71
2023/09/19 04:28:51;;;;;;;39.72;15.75;;;;;;;;;;6234577;28;20304;-68
2023/09/19 04:31:56;;;;;;;26.20;15.13;;;;;;;;;;6236028;28;20257;-70
2023/09/19 04:35:01;;;;;;;25.88;15.50;;;;;;;;;;6235022;28;20332;-69
2023/09/19 04:38:07;;;;;;;27.63;14.90;;;;;;;;;;6235768;28;20268;-70
2023/09/19 04:41:10;;;;;;;26.55;15.98;;;;;;;;;;6235319;28;20296;-69
2023/09/19 04:44:14;;;;;;;35.47;16.27;;;;;;;;;;6234453;28;20300;-68
2023/09/19 04:47:18;;;;;;;30.88;16.63;;;;;;;;;;6235808;28;20629;-68
2023/09/19 04:50:23;;;;;;;27.13;16.33;;;;;;;;;;6235299;28;20316;-69
2023/09/19 04:53:29;;;;;;;26.98;16.67;;;;;;;;;;6235238;28;20475;-67
2023/09/19 04:56:33;;;;;;;33.55;17.13;;;;;;;;;;6235597;28;20462;-70
2023/09/19 04:59:37;;;;;;;32.60;17.95;;;;;;;;;;6234835;28;20300;-69
2023/09/19 05:02:41;;;;;;;29.33;16.70;;;;;;;;;;6233631;28;20292;-70
2023/09/19 05:05:45;;;;;;;26.15;16.42;;;;;;;;;;6234838;28;20308;-69
2023/09/19 05:08:52;;;;;;;27.42;16.02;;;;;;;;;;6234656;28;20300;-69
2023/09/19 05:11:56;;;;;;;29.73;17.17;;;;;;;;;;6234934;28;20303;-68
2023/09/19 05:15:01;;;;;;;27.65;16.88;;;;;;;;;;6234414;28;20300;-69
2023/09/19 05:18:06;;;;;;;25.70;16.88;;;;;;;;;;6235077;28;20316;-69
2023/09/19 05:21:10;;;;;;;27.45;16.35;;;;;;;;;;6233954;28;20304;-69
2023/09/19 05:24:16;;;;;;;25.45;16.33;;;;;;;;;;6234257;28;20831;-70
2023/09/19 05:27:20;;;;;;;23.13;16.63;;;;;;;;;;6234529;28;20303;-69
2023/09/19 05:30:24;;;;;;;31.73;16.17;;;;;;;;;;6234171;28;20535;-69
2023/09/19 05:33:30;;;;;;;28.10;17.63;;;;;;;;;;6233762;28;20292;-68
2023/09/19 05:36:34;;;;;;;27.83;17.10;;;;;;;;;;6210093;28;20304;-69
2023/09/19 05:39:40;;;;;;;26.58;16.70;;;;;;;;;;6209478;28;20312;-70
2023/09/19 05:42:44;;;;;;;29.88;18.45;;;;;;;;;;6210083;28;20297;-68
2023/09/19 05:45:48;;;;;;;24.08;17.25;;;;;;;;;;6209027;28;20308;-68
2023/09/19 05:48:51;;;;;;;25.17;16.73;;;;;;;;;;6209650;28;20297;-70
2023/09/19 05:51:56;;;;;;;32.28;16.92;;;;;;;;;;6208124;28;20636;-69
2023/09/19 05:55:01;;;;;;;22.58;16.27;;;;;;;;;;6209636;28;20309;-68
2023/09/19 05:58:05;;;;;;;28.92;16.52;;;;;;;;;;6209796;28;20301;-68
2023/09/19 06:01:09;;;;;;;25.17;16.33;;;;;;;;;;6208643;28;20562;-69
2023/09/19 06:04:13;;;;;;;31.10;18.08;;;;;;;;;;6205571;28;20605;-69
2023/09/19 06:07:17;;;;;;;23.80;16.85;;;;;;;;;;6209038;28;20553;-68
2023/09/19 06:10:23;;;;;;;28.15;18.15;;;;;;;;;;6208400;28;20305;-68
2023/09/19 06:13:29;;;;;;;30.67;18.02;;;;;;;;;;6208513;28;20333;-68
2023/09/19 06:16:33;;;;;;;29.92;18.70;;;;;;;;;;6209078;28;20292;-68
2023/09/19 06:19:37;;;;;;;35.05;18.30;;;;;;;;;;6208342;28;20308;-68
2023/09/19 06:22:42;;;;;;;29.58;18.75;;;;;;;;;;6209048;28;20325;-69
2023/09/19 06:25:48;;;;;;;27.98;17.55;;;;;;;;;;6208168;28;20313;-67
2023/09/19 06:28:52;;;;;;;25.23;18.00;;;;;;;;;;6207544;28;20626;-68
2023/09/19 06:31:55;;;;;;;26.77;17.65;;;;;;;;;;6207071;28;20445;-69
2023/09/19 06:35:00;;;;;;;28.55;18.60;;;;;;;;;;6220388;28;20308;-70
2023/09/19 06:38:04;;;;;;;29.83;18.45;;;;;;;;;;6248228;28;20292;-70
2023/09/19 06:41:10;;;;;;;26.20;18.20;;;;;;;;;;6232559;28;20303;-69
2023/09/19 06:44:13;;;;;;;30.38;18.02;;;;;;;;;;6232025;28;20376;-70
2023/09/19 06:47:20;;;;;;;27.73;17.38;;;;;;;;;;6232751;28;20593;-72
2023/09/19 06:50:25;;;;;;;25.58;18.17;;;;;;;;;;6232313;28;20584;-70
2023/09/19 06:53:31;;;;;;;27.63;17.73;;;;;;;;;;6232282;28;20460;-69
2023/09/19 06:56:36;;;;;;;32.97;18.73;;;;;;;;;;6233233;28;20304;-69
2023/09/19 06:59:40;;;;;;;28.45;18.50;;;;;;;;;;6232253;28;20480;-69
2023/09/19 07:02:44;;;;;;;28.02;19.00;;;;;;;;;;6230741;28;20308;-68
2023/09/19 07:05:49;;;;;;;33.25;18.23;;;;;;;;;;6231791;28;20288;-72
2023/09/19 07:08:52;;;;;;;22.55;16.83;;;;;;;;;;6231803;28;20308;-72
2023/09/19 07:11:58;;;;;;;24.52;16.27;;;;;;;;;;6232530;28;20300;-70
2023/09/19 07:15:02;;;;;;;20.42;14.98;;;;;;;;;;6232149;28;20308;-69
2023/09/19 07:18:06;;;;;;;19.70;14.10;;;;;;;;;;6231539;28;20332;-70
2023/09/19 07:21:10;;;;;;;16.40;13.85;;;;;;;;;;6231527;28;20573;-71
2023/09/19 07:24:14;;;;;;;16.42;14.25;;;;;;;;;;6232187;28;20299;-69
2023/09/19 07:27:19;;;;;;;17.65;13.43;;;;;;;;;;6232521;28;20300;-69
2023/09/19 07:30:24;;;;;;;20.20;14.13;;;;;;;;;;6232139;28;20296;-69
2023/09/19 07:33:28;;;;;;;20.92;15.93;;;;;;;;;;6230780;28;20308;-69
2023/09/19 07:36:32;;;;;;;27.60;16.95;;;;;;;;;;6232885;28;20300;-68
2023/09/19 07:39:36;;;;;;;26.05;17.73;;;;;;;;;;6232051;28;20489;-69
2023/09/19 07:42:41;;;;;;;25.42;17.45;;;;;;;;;;6232499;28;20241;-68
2023/09/19 07:45:45;;;;;;;28.35;18.50;;;;;;;;;;6231960;28;20296;-69
2023/09/19 07:48:48;;;;;;;31.05;18.67;;;;;;;;;;6231987;28;20324;-69
2023/09/19 07:51:54;;;;;;;23.17;17.88;;;;;;;;;;6231856;28;20293;-69
2023/09/19 07:55:01;;;;;;;30.10;18.80;;;;;;;;;;6231772;28;20584;-68
2023/09/19 07:58:07;;;;;;;30.15;18.27;;;;;;;;;;6232225;28;20479;-68
2023/09/19 08:01:12;;;;;;;32.67;19.45;;;;;;;;;;6231314;28;20612;-69
2023/09/19 08:04:16;;;;;;;33.88;19.33;;;;;;;;;;6229687;28;20320;-69
2023/09/19 08:07:20;;;;;;;30.77;19.23;;;;;;;;;;6232061;28;20299;-71
2023/09/19 08:10:27;;;;;;;29.20;18.33;;;;;;;;;;6231400;28;20319;-70
2023/09/19 08:13:33;;;;;;;29.10;18.95;;;;;;;;;;6231747;28;20303;-69
2023/09/19 08:16:37;;;;;;;29.50;18.67;;;;;;;;;;6231949;28;20301;-69
2023/09/19 08:19:42;;;;;;;31.35;17.60;;;;;;;;;;6234687;28;20452;-69
2023/09/19 08:22:49;;;;;;;28.27;17.35;;;;;;;;;;6235979;28;20392;-69
2023/09/19 08:25:57;;;;;;;30.77;17.52;;;;;;;;;;6234848;28;20304;-70
2023/09/19 08:29:06;;;;;;;28.77;16.88;;;;;;;;;;6235356;28;20520;-70
2023/09/19 08:32:10;;;;;;;25.45;16.88;;;;;;;;;;6236018;28;20585;-69
2023/09/19 08:35:14;;;;;;;24.13;16.33;;;;;;;;;;6235607;28;20352;-70
2023/09/19 08:38:18;;;;;;;29.85;17.15;;;;;;;;;;6235318;28;20292;-71
2023/09/19 08:41:22;;;;;;;25.02;16.67;;;;;;;;;;6235828;28;20308;-69
2023/09/19 08:44:27;;;;;;;27.60;16.48;;;;;;;;;;6242417;28;20334;-69
2023/09/19 08:47:35;;;;;;;23.83;16.95;;;;;;;;;;6211717;28;20473;-69
2023/09/19 08:50:44;;;;;;;25.60;16.33;;;;;;;;;;6210866;28;20365;-70
2023/09/19 08:53:52;;;;;;;22.77;15.52;;;;;;;;;;6210883;28;20619;-71
2023/09/19 08:56:58;;;;;;;22.83;15.02;;;;;;;;;;6241925;28;20479;-69
2023/09/19 09:00:05;;;;;;;25.30;15.52;;;;;;;;;;6210829;28;20301;-69
2023/09/19 09:03:10;;;;;;;23.85;15.18;;;;;;;;;;6209172;28;20316;-69
2023/09/19 09:06:16;;;;;;;21.48;14.80;;;;;;;;;;6210503;28;20301;-69
2023/09/19 09:09:21;;;;;;;22.35;14.32;;;;;;;;;;6210561;28;20344;-69
2023/09/19 09:12:26;;;;;;;21.13;14.35;;;;;;;;;;6250298;28;20304;-69
2023/09/19 09:15:32;;;;;;;25.58;13.75;;;;;;;;;;6234616;28;20312;-69
2023/09/19 09:18:36;;;;;;;17.50;13.05;;;;;;;;;;6234809;28;20597;-69
2023/09/19 09:21:40;;;;;;;15.82;12.45;;;;;;;;;;6235240;28;20308;-69
2023/09/19 09:24:53;;;;;;;18.70;12.45;;;;;;;;;;6234668;28;20323;-70
2023/09/19 09:28:02;;;;;;;17.08;12.40;;;;;;;;;;6235650;28;20296;-69
2023/09/19 09:31:09;;;;;;;17.02;11.55;;;;;;;;;;6234761;28;20292;-70
2023/09/19 09:34:14;;;;;;;15.40;10.52;;;;;;;;;;6234525;28;20314;-68
2023/09/19 09:37:19;;;;;;;15.27;9.82;;;;;;;;;;6234634;28;20348;-67
2023/09/19 09:40:35;;;;;;;16.73;10.07;;;;;;;;;;6234353;28;20304;-68
2023/09/19 09:43:46;;;;;;;17.42;9.35;;;;;;;;;;6233976;28;20297;-67
2023/09/19 09:46:58;;;;;;;13.70;9.10;;;;;;;;;;6233542;28;20292;-67
2023/09/19 09:50:17;;;;;;;13.55;8.90;;;;;;;;;;6233486;28;20312;-68
2023/09/19 09:53:21;;;;;;;13.32;8.98;;;;;;;;;;6233548;28;20292;-68
2023/09/19 09:56:27;;;;;;;10.35;8.40;;;;;;;;;;6234246;28;20327;-68
2023/09/19 09:59:51;;;;;;;14.38;8.68;;;;;;;;;;6233773;28;20301;-68
2023/09/19 10:02:56;;;;;;;11.60;8.32;;;;;;;;;;6231773;28;20550;-69
2023/09/19 10:06:11;;;;;;;12.85;8.00;;;;;;;;;;6233549;28;20313;-70
2023/09/19 10:09:16;;;;;;;11.52;7.85;;;;;;;;;;6233238;28;20296;-71
2023/09/19 10:12:21;;;;;;;10.98;7.20;;;;;;;;;;6233994;28;20304;-69
2023/09/19 10:15:29;;;;;;;9.82;7.50;;;;;;;;;;6233379;28;20296;-68
2023/09/19 10:18:38;;;;;;;10.15;7.65;;;;;;;;;;6233285;28;20561;-68
2023/09/19 10:21:43;;;;;;;13.18;7.85;;;;;;;;;;6233866;28;20467;-70
2023/09/19 10:24:48;;;;;;;9.13;6.75;;;;;;;;;;6232919;28;20308;-70
2023/09/19 10:28:10;;;;;;;15.95;7.70;;;;;;;;;;6233533;28;20316;-68
2023/09/19 10:31:19;;;;;;;9.80;7.60;;;;;;;;;;6232513;28;20600;-69
2023/09/19 10:34:26;;;;;;;9.02;6.60;;;;;;;;;;6232514;28;20311;-68
2023/09/19 10:37:32;;;;;;;7.20;6.70;;;;;;;;;;6233620;28;20300;-68
2023/09/19 10:40:36;;;;;;;7.13;6.43;;;;;;;;;;6232306;28;20316;-68
2023/09/19 10:43:44;;;;;;;10.70;6.65;;;;;;;;;;6247477;28;20233;-69
2023/09/19 10:46:48;;;;;;;7.85;7.22;;;;;;;;;;6232764;28;20280;-68
2023/09/19 10:49:54;;;;;;;8.18;6.22;;;;;;;;;;6232811;28;20308;-69
2023/09/19 10:53:04;;;;;;;8.95;5.93;;;;;;;;;;6232557;28;20261;-70
2023/09/19 10:56:17;;;;;;;9.63;5.95;;;;;;;;;;6233209;28;20288;-68
2023/09/19 10:59:22;;;;;;;7.13;5.90;;;;;;;;;;6232340;28;20292;-69
2023/09/19 11:02:26;;;;;;;7.88;5.65;;;;;;;;;;6230996;28;20288;-69
2023/09/19 11:05:31;;;;;;;5.15;4.80;;;;;;;;;;6232298;28;20296;-68
2023/09/19 11:08:57;;;;;;;6.30;5.30;;;;;;;;;;6232106;28;20493;-69
2023/09/19 11:12:02;;;;;;;5.65;5.00;;;;;;;;;;6232422;28;20312;-69
2023/09/19 11:15:08;;;;;;;6.75;4.82;;;;;;;;;;6232100;28;20303;-69
2023/09/19 11:18:46;;;;;;;4.72;4.43;;;;;;;;;;6231788;28;20300;-69
2023/09/19 11:21:58;;;;;;;4.78;4.28;;;;;;;;;;6247333;28;20304;-69
2023/09/19 11:25:47;;;;;;;5.63;4.22;;;;;;;;;;6232177;28;20316;-69
2023/09/19 11:29:30;;;;;;;5.60;4.45;;;;;;;;;;6231308;28;20304;-68
2023/09/19 11:33:07;;;;;;;3.90;3.70;;;;;;;;;;6232462;28;20321;-69
2023/09/19 11:36:14;;;;;;;5.03;4.03;;;;;;;;;;6231631;28;20313;-68
2023/09/19 11:39:29;;;;;;;5.10;3.88;;;;;;;;;;6231969;28;20596;-69
2023/09/19 11:42:43;;;;;;;6.93;3.90;;;;;;;;;;6232526;28;20600;-70
2023/09/19 11:46:07;;;;;;;4.43;3.83;;;;;;;;;;6231845;28;20296;-71
2023/09/19 11:49:13;;;;;;;3.60;3.40;;;;;;;;;;6231995;28;20292;-68
2023/09/19 11:52:24;;;;;;;5.55;2.40;;;;;;;;;;6233441;28;20309;-68
2023/09/19 11:55:32;;;;;;;2.33;2.15;;;;;;;;;;6236858;28;20313;-69
2023/09/19 11:58:37;;;;;;;2.83;1.77;;;;;;;;;;6235496;28;20312;-68
2023/09/19 12:01:44;;;;;;;2.95;2.08;;;;;;;;;;6237535;28;20585;-70
2023/09/19 12:04:49;;;;;;;2.90;1.70;;;;;;;;;;6248962;28;20304;-68
2023/09/19 12:07:54;;;;;;;2.38;1.40;;;;;;;;;;6236633;28;20284;-68
2023/09/19 12:10:59;;;;;;;1.98;1.75;;;;;;;;;;6236367;28;20593;-69
2023/09/19 12:14:03;;;;;;;3.45;1.50;;;;;;;;;;6236555;28;20557;-67
2023/09/19 12:17:08;;;;;;;1.92;1.70;;;;;;;;;;6236336;28;20304;-68
2023/09/19 12:20:13;;;;;;;2.28;1.60;;;;;;;;;;6236034;28;20300;-70
2023/09/19 12:23:19;;;;;;;5.15;1.60;;;;;;;;;;6251160;28;20320;-67
2023/09/19 12:26:25;;;;;;;7.43;1.95;;;;;;;;;;6236928;28;20296;-69
2023/09/19 12:29:29;;;;;;;3.80;1.70;;;;;;;;;;6235996;28;20292;-71
2023/09/19 12:32:37;;;;;;;3.58;1.77;;;;;;;;;;6236845;28;20296;-69
2023/09/19 12:35:41;;;;;;;2.13;1.60;;;;;;;;;;6236061;28;20296;-69
2023/09/19 12:38:49;;;;;;;5.53;1.98;;;;;;;;;;6235816;28;20291;-70
2023/09/19 12:41:54;;;;;;;3.63;2.00;;;;;;;;;;6236159;28;20308;-68
2023/09/19 12:45:00;;;;;;;1.98;1.63;;;;;;;;;;6235635;28;20332;-69
2023/09/19 12:48:21;;;;;;;3.08;1.83;;;;;;;;;;6235811;28;20529;-69
2023/09/19 12:51:36;;;;;;;2.60;1.92;;;;;;;;;;6235305;28;20301;-68
2023/09/19 12:54:40;;;;;;;3.05;1.80;;;;;;;;;;6235675;28;20296;-69
2023/09/19 12:57:45;;;;;;;3.00;1.80;;;;;;;;;;6236092;28;20296;-68
2023/09/19 13:00:51;;;;;;;1.92;1.80;;;;;;;;;;6235978;28;20399;-69
2023/09/19 13:04:18;;;;;;;7.30;1.80;;;;;;;;;;6233285;28;20317;-69
2023/09/19 13:07:45;;;;;;;1.70;1.60;;;;;;;;;;6236195;28;20296;-68
2023/09/19 13:11:13;;;;;;;4.57;1.67;;;;;;;;;;6234401;28;20557;-69
2023/09/19 13:14:21;;;;;;;2.70;1.80;;;;;;;;;;6235235;28;20280;-69
2023/09/19 13:17:25;;;;;;;5.68;1.85;;;;;;;;;;6235710;28;20293;-69
2023/09/19 13:20:32;;;;;;;3.90;1.85;;;;;;;;;;6235331;28;20568;-68
2023/09/19 13:23:36;;;;;;;1.55;1.55;;;;;;;;;;6234922;28;20288;-71
2023/09/19 13:26:40;;;;;;;5.30;1.90;;;;;;;;;;6235491;28;20304;-69
2023/09/19 13:29:45;;;;;;;3.60;1.90;;;;;;;;;;6234975;28;20300;-69
2023/09/19 13:32:49;;;;;;;2.15;1.80;;;;;;;;;;6235092;28;20296;-69
2023/09/19 13:35:53;;;;;;;2.00;1.77;;;;;;;;;;6234351;28;20320;-69
2023/09/19 13:38:57;;;;;;;1.80;1.70;;;;;;;;;;6234618;28;20312;-68
2023/09/19 13:42:02;;;;;;;12.07;2.25;;;;;;;;;;6235127;28;20303;-72
2023/09/19 13:45:11;;;;;;;10.35;2.28;;;;;;;;;;6234180;28;20304;-69
2023/09/19 13:48:16;;;;;;;10.75;2.50;;;;;;;;;;6234267;28;20458;-70
2023/09/19 13:51:20;;;;;;;2.22;1.75;;;;;;;;;;6235214;28;20324;-71
2023/09/19 13:54:24;;;;;;;3.25;2.10;;;;;;;;;;6234434;28;20311;-68
2023/09/19 13:57:29;;;;;;;1.90;1.90;;;;;;;;;;6235066;28;20303;-68
2023/09/19 14:00:35;;;;;;;2.30;1.73;;;;;;;;;;6234700;28;20364;-69
2023/09/19 14:03:39;;;;;;;2.60;1.50;;;;;;;;;;6232878;28;20284;-69
2023/09/19 14:06:43;;;;;;;2.13;1.88;;;;;;;;;;6234731;28;20304;-69
2023/09/19 14:09:47;;;;;;;4.00;2.15;;;;;;;;;;6233832;28;20300;-69
2023/09/19 14:12:51;;;;;;;2.58;2.35;;;;;;;;;;6234392;28;20319;-69
2023/09/19 14:15:56;;;;;;;2.72;1.73;;;;;;;;;;6233197;28;20312;-68
2023/09/19 14:19:00;;;;;;;3.17;2.05;;;;;;;;;;6234290;28;20292;-68
2023/09/19 14:22:07;;;;;;;5.05;1.98;;;;;;;;;;6234678;28;20296;-67
2023/09/19 14:25:12;;;;;;;2.50;1.90;;;;;;;;;;6234171;28;20296;-68
2023/09/19 14:28:16;;;;;;;2.17;2.00;;;;;;;;;;6233740;28;20308;-68
2023/09/19 14:31:21;;;;;;;1.88;1.88;;;;;;;;;;6233983;28;20446;-68
2023/09/19 14:34:25;;;;;;;2.47;2.00;;;;;;;;;;6233213;28;20328;-72
2023/09/19 14:37:29;;;;;;;3.78;1.83;;;;;;;;;;6234086;28;20355;-68
2023/09/19 14:40:33;;;;;;;2.85;2.08;;;;;;;;;;6233704;28;20304;-70
2023/09/19 14:43:37;;;;;;;1.85;1.75;;;;;;;;;;6233224;28;20476;-69
2023/09/19 14:46:45;;;;;;;2.20;2.00;;;;;;;;;;6233605;28;20300;-69
2023/09/19 14:49:49;;;;;;;2.92;1.90;;;;;;;;;;6232915;28;20296;-68
2023/09/19 14:52:54;;;;;;;3.40;1.85;;;;;;;;;;6233836;28;20240;-69
2023/09/19 14:55:58;;;;;;;2.40;1.70;;;;;;;;;;6233496;28;20308;-69
2023/09/19 14:59:02;;;;;;;5.65;2.15;;;;;;;;;;6232807;28;20295;-69
2023/09/19 15:02:08;;;;;;;2.92;1.88;;;;;;;;;;6230006;28;20296;-68
2023/09/19 15:05:12;;;;;;;3.80;1.83;;;;;;;;;;6232754;28;20415;-68
2023/09/19 15:08:17;;;;;;;1.85;1.73;;;;;;;;;;6232885;28;20305;-69
2023/09/19 15:11:22;;;;;;;3.10;1.70;;;;;;;;;;6232958;28;20303;-70
2023/09/19 15:14:26;;;;;;;4.43;1.80;;;;;;;;;;6232940;28;20383;-68
2023/09/19 15:17:31;;;;;;;1.77;1.67;;;;;;;;;;6232452;28;20296;-69
2023/09/19 15:20:36;;;;;;;2.30;1.60;;;;;;;;;;6247402;28;20292;-69
2023/09/19 15:23:40;;;;;;;1.70;1.60;;;;;;;;;;6232121;28;20296;-71
2023/09/19 15:26:44;;;;;;;3.47;1.63;;;;;;;;;;6233263;28;20320;-70
2023/09/19 15:29:48;;;;;;;4.45;2.45;;;;;;;;;;6237747;28;20296;-69
2023/09/19 15:32:53;;;;;;;6.43;1.88;;;;;;;;;;6241004;28;20626;-67
2023/09/19 15:36:04;;;;;;;3.63;1.83;;;;;;;;;;6241788;28;20315;-69
2023/09/19 15:39:10;;;;;;;5.80;1.65;;;;;;;;;;6243252;28;20308;-69
2023/09/19 15:42:15;;;;;;;6.25;2.15;;;;;;;;;;6245231;28;20304;-70
2023/09/19 15:45:19;;;;;;;6.78;1.67;;;;;;;;;;6242690;28;20304;-69
2023/09/19 15:48:26;;;;;;;1.83;1.70;;;;;;;;;;6240732;28;20300;-72
2023/09/19 15:51:29;;;;;;;1.30;1.30;;;;;;;;;;6242386;28;20296;-71
2023/09/19 15:54:33;;;;;;;2.83;1.33;;;;;;;;;;6243391;28;20504;-69
2023/09/19 15:57:37;;;;;;;2.00;1.60;;;;;;;;;;6241972;28;20859;-67
2023/09/19 16:00:41;;;;;;;2.30;1.80;;;;;;;;;;6242259;28;20308;-67
2023/09/19 16:03:48;;;;;;;1.35;1.35;;;;;;;;;;6240026;28;20367;-67
2023/09/19 16:06:52;;;;;;;1.52;1.50;;;;;;;;;;6242040;28;20308;-69
2023/09/19 16:09:56;;;;;;;2.10;1.50;;;;;;;;;;6241019;28;20308;-68
2023/09/19 16:12:59;;;;;;;2.45;1.45;;;;;;;;;;6241489;28;20304;-68
2023/09/19 16:16:03;;;;;;;3.45;1.65;;;;;;;;;;6240331;28;20296;-71
2023/09/19 16:19:10;;;;;;;1.90;1.40;;;;;;;;;;6241466;28;20296;-69
2023/09/19 16:22:15;;;;;;;5.25;1.60;;;;;;;;;;6243142;28;20827;-68
2023/09/19 16:25:18;;;;;;;1.33;1.30;;;;;;;;;;6242582;28;20392;-70
2023/09/19 16:28:22;;;;;;;1.63;1.55;;;;;;;;;;6242241;28;20296;-68
2023/09/19 16:31:26;;;;;;;1.90;1.60;;;;;;;;;;6242848;28;20369;-67
2023/09/19 16:34:31;;;;;;;1.77;1.50;;;;;;;;;;6241870;28;20316;-69
2023/09/19 16:37:35;;;;;;;3.00;1.65;;;;;;;;;;6242782;28;20363;-68
2023/09/19 16:40:41;;;;;;;5.63;1.50;;;;;;;;;;6240996;28;20301;-68
2023/09/19 16:43:45;;;;;;;1.80;1.20;;;;;;;;;;6240765;28;20304;-66
2023/09/19 16:46:49;;;;;;;1.30;1.20;;;;;;;;;;6240198;28;20288;-70
2023/09/19 16:49:54;;;;;;;2.33;1.10;;;;;;;;;;6240377;28;20304;-67
2023/09/19 16:52:58;;;;;;;1.45;1.40;;;;;;;;;;6239772;28;20241;-72
2023/09/19 16:56:03;;;;;;;1.42;1.20;;;;;;;;;;6238676;28;20292;-67
2023/09/19 16:59:07;;;;;;;1.45;1.45;;;;;;;;;;6236563;28;20296;-70
2023/09/19 17:02:11;;;;;;;1.55;1.45;;;;;;;;;;6234533;28;20300;-69
2023/09/19 17:05:18;;;;;;;1.83;1.75;;;;;;;;;;6235559;28;20296;-69
2023/09/19 17:08:22;;;;;;;1.52;1.52;;;;;;;;;;6234420;28;20304;-68
2023/09/19 17:11:26;;;;;;;1.40;1.40;;;;;;;;;;6235265;28;20460;-72
2023/09/19 17:14:31;;;;;;;3.03;1.60;;;;;;;;;;6235331;28;20300;-68
2023/09/19 17:17:35;;;;;;;3.00;1.70;;;;;;;;;;6234184;28;20425;-69
2023/09/19 17:20:43;;;;;;;2.33;1.50;;;;;;;;;;6235706;28;20296;-68
2023/09/19 17:23:48;;;;;;;1.88;1.42;;;;;;;;;;6234917;28;20304;-69
2023/09/19 17:26:52;;;;;;;6.63;1.30;;;;;;;;;;6235307;28;20305;-70
2023/09/19 17:29:56;;;;;;;1.50;1.40;;;;;;;;;;6234884;28;20301;-69
2023/09/19 17:32:59;;;;;;;1.52;1.30;;;;;;;;;;6234937;28;20299;-70
2023/09/19 17:36:09;;;;;;;1.20;1.20;;;;;;;;;;6249652;28;20471;-69
2023/09/19 17:39:15;;;;;;;1.40;1.30;;;;;;;;;;6234487;28;20296;-70
2023/09/19 17:42:19;;;;;;;1.90;1.80;;;;;;;;;;6235052;28;20311;-68
2023/09/19 17:45:23;;;;;;;2.15;1.40;;;;;;;;;;6234279;28;20304;-68
2023/09/19 17:48:26;;;;;;;1.38;1.30;;;;;;;;;;6234327;28;20316;-69
2023/09/19 17:51:31;;;;;;;2.53;1.77;;;;;;;;;;6234482;28;20321;-69
2023/09/19 17:54:35;;;;;;;3.08;2.20;;;;;;;;;;6234675;28;20299;-70
2023/09/19 17:57:40;;;;;;;4.47;2.60;;;;;;;;;;6234527;28;20312;-68
2023/09/19 18:00:44;;;;;;;4.13;2.47;;;;;;;;;;6234185;28;20292;-69
2023/09/19 18:03:49;;;;;;;2.75;2.33;;;;;;;;;;6232232;28;20305;-70
2023/09/19 18:06:54;;;;;;;2.78;2.15;;;;;;;;;;6233845;28;20312;-68
2023/09/19 18:09:59;;;;;;;2.83;1.80;;;;;;;;;;6232524;28;20328;-71
2023/09/19 18:13:02;;;;;;;2.03;1.83;;;;;;;;;;6233165;28;20304;-72
2023/09/19 18:16:07;;;;;;;1.60;1.50;;;;;;;;;;6233827;28;20317;-68
2023/09/19 18:19:12;;;;;;;1.50;1.50;;;;;;;;;;6233317;28;20316;-70
2023/09/19 18:22:17;;;;;;;2.35;1.70;;;;;;;;;;6233795;28;20305;-70